Time;durP1;ratioP1;P1;durP2;ratioP2;P2;SDS_P1;SDS_P2;PMS_P1;PMS_P2;Temp;Humidity;BMP_temperature;BMP_pressure;BME280_temperature;BME280_humidity;BME280_pressure;Samples;Min_cycle;Max_cycle;Signal;HPM_P1;HPM_P2
2022/08/30 00:01:34;;;;;;;;;2.25;2.25;;;;;;;;5021330;28;8829;-76
2022/08/30 00:04:07;;;;;;;;;2.50;2.50;;;;;;;;5024435;28;8888;-76
2022/08/30 00:06:34;;;;;;;;;5.75;4.00;;;;;;;;5020864;28;8995;-76
2022/08/30 00:09:01;;;;;;;;;5.25;2.00;;;;;;;;5023020;28;8876;-76
2022/08/30 00:11:29;;;;;;;;;3.50;3.50;;;;;;;;5023506;28;8856;-76
2022/08/30 00:13:57;;;;;;;;;4.00;4.00;;;;;;;;5023413;28;8908;-76
2022/08/30 00:16:25;;;;;;;;;5.00;3.50;;;;;;;;5021839;28;8877;-76
2022/08/30 00:18:54;;;;;;;;;3.00;3.00;;;;;;;;5018957;28;8872;-77
2022/08/30 00:21:22;;;;;;;;;3.00;3.00;;;;;;;;5023788;28;8946;-76
2022/08/30 00:23:49;;;;;;;;;2.25;2.25;;;;;;;;5010087;28;8906;-76
2022/08/30 00:26:17;;;;;;;;;5.00;3.50;;;;;;;;5021745;28;9880;-75
2022/08/30 00:28:44;;;;;;;;;3.50;2.00;;;;;;;;5023099;28;8856;-76
2022/08/30 00:31:11;;;;;;;;;3.00;2.00;;;;;;;;5022018;28;9587;-76
2022/08/30 00:33:39;;;;;;;;;4.25;4.00;;;;;;;;5023415;28;9673;-76
2022/08/30 00:36:08;;;;;;;;;3.00;3.00;;;;;;;;5022194;28;8907;-76
2022/08/30 00:38:36;;;;;;;;;3.50;3.50;;;;;;;;5006770;28;8881;-76
2022/08/30 00:41:03;;;;;;;;;3.75;3.50;;;;;;;;5021181;28;8897;-76
2022/08/30 00:43:34;;;;;;;;;4.25;3.00;;;;;;;;5021751;28;8927;-75
2022/08/30 00:46:03;;;;;;;;;4.50;3.25;;;;;;;;5022256;28;8868;-76
2022/08/30 00:48:30;;;;;;;;;3.00;3.00;;;;;;;;5023068;28;8861;-75
2022/08/30 00:51:02;;;;;;;;;4.50;4.00;;;;;;;;5023521;28;8876;-75
2022/08/30 00:53:34;;;;;;;;;2.75;2.75;;;;;;;;5021624;28;8895;-75
2022/08/30 00:56:02;;;;;;;;;2.50;2.50;;;;;;;;5024270;28;8872;-75
2022/08/30 00:58:32;;;;;;;;;3.00;3.00;;;;;;;;5021034;28;8910;-75
2022/08/30 01:01:01;;;;;;;;;3.00;3.00;;;;;;;;5022750;28;8801;-75
2022/08/30 01:03:28;;;;;;;;;4.00;2.75;;;;;;;;5023119;28;8900;-75
2022/08/30 01:05:57;;;;;;;;;4.25;3.00;;;;;;;;5022717;28;9004;-75
2022/08/30 01:08:24;;;;;;;;;2.00;2.00;;;;;;;;5023939;28;8868;-75
2022/08/30 01:10:54;;;;;;;;;3.00;3.00;;;;;;;;5021713;28;9728;-75
2022/08/30 01:13:22;;;;;;;;;5.75;5.00;;;;;;;;5022905;28;8845;-75
2022/08/30 01:15:49;;;;;;;;;3.75;3.25;;;;;;;;5009583;28;8922;-75
2022/08/30 01:18:17;;;;;;;;;3.00;2.00;;;;;;;;5022588;28;8873;-75
2022/08/30 01:20:49;;;;;;;;;2.75;2.75;;;;;;;;5024984;28;8996;-75
2022/08/30 01:23:18;;;;;;;;;2.75;2.75;;;;;;;;5026697;28;8860;-75
2022/08/30 01:25:48;;;;;;;;;5.75;4.75;;;;;;;;5027008;28;8849;-76
2022/08/30 01:28:18;;;;;;;;;4.00;4.00;;;;;;;;5026040;28;8912;-75
2022/08/30 01:30:46;;;;;;;;;4.50;2.75;;;;;;;;5026018;28;8801;-76
2022/08/30 01:33:13;;;;;;;;;3.50;3.50;;;;;;;;5019986;28;8872;-75
2022/08/30 01:35:47;;;;;;;;;6.00;4.25;;;;;;;;5026688;28;8884;-75
2022/08/30 01:38:17;;;;;;;;;2.75;2.75;;;;;;;;5027088;28;8930;-75
2022/08/30 01:40:44;;;;;;;;;4.00;4.00;;;;;;;;5026211;28;8877;-75
2022/08/30 01:43:13;;;;;;;;;5.00;4.75;;;;;;;;5026568;28;8843;-75
2022/08/30 01:45:40;;;;;;;;;6.00;4.75;;;;;;;;5025597;28;8906;-75
2022/08/30 01:48:08;;;;;;;;;6.25;4.00;;;;;;;;5026798;28;8893;-75
2022/08/30 01:50:35;;;;;;;;;3.67;3.67;;;;;;;;5025496;28;8869;-74
2022/08/30 01:53:04;;;;;;;;;3.25;3.25;;;;;;;;5026011;28;8901;-74
2022/08/30 01:55:33;;;;;;;;;3.00;3.00;;;;;;;;5026588;28;8868;-75
2022/08/30 01:58:01;;;;;;;;;6.75;4.00;;;;;;;;5009166;28;8868;-75
2022/08/30 02:00:29;;;;;;;;;5.00;3.00;;;;;;;;5026243;28;8769;-75
2022/08/30 02:02:57;;;;;;;;;4.00;4.00;;;;;;;;5025549;28;8876;-75
2022/08/30 02:05:25;;;;;;;;;3.75;3.50;;;;;;;;5023561;28;8882;-75
2022/08/30 02:07:52;;;;;;;;;2.00;1.25;;;;;;;;5022213;28;8873;-74
2022/08/30 02:10:20;;;;;;;;;3.00;3.00;;;;;;;;5025882;28;8856;-75
2022/08/30 02:12:49;;;;;;;;;4.00;4.00;;;;;;;;5025488;28;8884;-75
2022/08/30 02:15:17;;;;;;;;;3.75;3.00;;;;;;;;5025777;28;8899;-74
2022/08/30 02:17:44;;;;;;;;;5.00;5.00;;;;;;;;5025516;28;8851;-75
2022/08/30 02:20:12;;;;;;;;;6.50;3.25;;;;;;;;5024512;28;8860;-75
2022/08/30 02:22:39;;;;;;;;;2.75;2.75;;;;;;;;5024583;28;8892;-75
2022/08/30 02:25:08;;;;;;;;;3.00;3.00;;;;;;;;5024476;28;9640;-74
2022/08/30 02:27:36;;;;;;;;;4.75;4.75;;;;;;;;5026160;28;8884;-75
2022/08/30 02:30:06;;;;;;;;;2.50;2.00;;;;;;;;5015030;28;8876;-75
2022/08/30 02:32:33;;;;;;;;;6.00;4.75;;;;;;;;5024298;28;8876;-75
2022/08/30 02:35:01;;;;;;;;;5.00;3.25;;;;;;;;5025530;28;9597;-75
2022/08/30 02:37:28;;;;;;;;;5.75;4.00;;;;;;;;5024718;28;8904;-75
2022/08/30 02:39:55;;;;;;;;;4.00;4.00;;;;;;;;5024492;28;8892;-74
2022/08/30 02:42:22;;;;;;;;;2.00;2.00;;;;;;;;5024096;28;8873;-75
2022/08/30 02:44:50;;;;;;;;;3.00;2.75;;;;;;;;5019431;28;8877;-75
2022/08/30 02:47:18;;;;;;;;;2.50;2.50;;;;;;;;5024402;28;8967;-75
2022/08/30 02:49:46;;;;;;;;;3.75;3.75;;;;;;;;5024942;28;8905;-75
2022/08/30 02:52:13;;;;;;;;;3.50;3.50;;;;;;;;5025381;28;8907;-74
2022/08/30 02:54:40;;;;;;;;;4.00;2.75;;;;;;;;5024479;28;8892;-75
2022/08/30 02:57:08;;;;;;;;;4.00;4.00;;;;;;;;5007857;28;8865;-75
2022/08/30 02:59:40;;;;;;;;;2.75;2.75;;;;;;;;5023607;28;9019;-75
2022/08/30 03:02:07;;;;;;;;;3.00;3.00;;;;;;;;5024855;28;8914;-75
2022/08/30 03:04:37;;;;;;;;;4.00;2.25;;;;;;;;5023898;28;8888;-75
2022/08/30 03:07:04;;;;;;;;;4.50;4.00;;;;;;;;5025015;28;8868;-74
2022/08/30 03:09:31;;;;;;;;;5.00;5.00;;;;;;;;5024996;28;9894;-74
2022/08/30 03:11:59;;;;;;;;;4.25;4.00;;;;;;;;5024631;28;8896;-75
2022/08/30 03:14:26;;;;;;;;;4.75;4.00;;;;;;;;5024592;28;8895;-74
2022/08/30 03:16:54;;;;;;;;;6.00;4.50;;;;;;;;5023314;28;9008;-75
2022/08/30 03:19:21;;;;;;;;;5.50;4.75;;;;;;;;5024913;28;8908;-75
2022/08/30 03:21:50;;;;;;;;;3.75;3.75;;;;;;;;5023340;28;8853;-75
2022/08/30 03:24:18;;;;;;;;;3.50;3.50;;;;;;;;5024895;28;8895;-75
2022/08/30 03:26:45;;;;;;;;;5.00;3.00;;;;;;;;5024863;28;8906;-75
2022/08/30 03:29:12;;;;;;;;;3.00;3.00;;;;;;;;5023694;28;8893;-76
2022/08/30 03:31:40;;;;;;;;;2.50;2.50;;;;;;;;5022872;28;8821;-75
2022/08/30 03:34:09;;;;;;;;;5.00;5.00;;;;;;;;5023028;28;8868;-75
2022/08/30 03:36:36;;;;;;;;;2.25;2.25;;;;;;;;5025314;28;10169;-74
2022/08/30 03:39:06;;;;;;;;;4.25;4.25;;;;;;;;5023619;28;8876;-74
2022/08/30 03:41:34;;;;;;;;;4.25;4.00;;;;;;;;5024704;28;8854;-75
2022/08/30 03:44:02;;;;;;;;;3.75;3.75;;;;;;;;5010688;28;8859;-75
2022/08/30 03:46:30;;;;;;;;;4.50;4.50;;;;;;;;5023879;28;8863;-74
2022/08/30 03:48:57;;;;;;;;;5.25;4.75;;;;;;;;5017080;28;9610;-74
2022/08/30 03:51:24;;;;;;;;;4.00;4.00;;;;;;;;5022486;28;8919;-75
2022/08/30 03:53:52;;;;;;;;;3.00;3.00;;;;;;;;5025087;28;8872;-75
2022/08/30 03:56:21;;;;;;;;;3.00;3.00;;;;;;;;5023273;28;8895;-76
2022/08/30 03:58:48;;;;;;;;;4.25;4.25;;;;;;;;5024267;28;8877;-75
2022/08/30 04:01:16;;;;;;;;;4.75;3.50;;;;;;;;5021719;28;8836;-75
2022/08/30 04:03:43;;;;;;;;;3.50;3.50;;;;;;;;5024455;28;8930;-75
2022/08/30 04:06:11;;;;;;;;;4.25;4.25;;;;;;;;5022010;28;9026;-75
2022/08/30 04:08:39;;;;;;;;;7.00;5.00;;;;;;;;5024137;28;8864;-75
2022/08/30 04:11:06;;;;;;;;;4.75;4.50;;;;;;;;5024294;28;8974;-75
2022/08/30 04:13:35;;;;;;;;;4.75;3.75;;;;;;;;5022429;28;8880;-76
2022/08/30 04:16:03;;;;;;;;;4.50;4.00;;;;;;;;5023653;28;8884;-75
2022/08/30 04:18:30;;;;;;;;;6.75;4.50;;;;;;;;5023025;28;8869;-76
2022/08/30 04:20:57;;;;;;;;;4.00;4.00;;;;;;;;5021979;28;9702;-76
2022/08/30 04:23:25;;;;;;;;;5.25;3.50;;;;;;;;5022818;28;8849;-75
2022/08/30 04:25:52;;;;;;;;;5.00;5.00;;;;;;;;5023019;28;8876;-75
2022/08/30 04:28:19;;;;;;;;;5.00;5.00;;;;;;;;5023695;28;8849;-75
2022/08/30 04:30:47;;;;;;;;;6.00;4.00;;;;;;;;5014754;28;9637;-75
2022/08/30 04:33:16;;;;;;;;;4.50;3.50;;;;;;;;5019284;28;8882;-75
2022/08/30 04:35:45;;;;;;;;;5.00;5.00;;;;;;;;5022066;28;8879;-76
2022/08/30 04:38:13;;;;;;;;;4.50;4.50;;;;;;;;5005519;28;8900;-75
2022/08/30 04:40:42;;;;;;;;;5.75;4.75;;;;;;;;5023090;28;8850;-75
2022/08/30 04:43:10;;;;;;;;;5.00;5.00;;;;;;;;5004714;28;8856;-76
2022/08/30 04:45:40;;;;;;;;;6.00;6.00;;;;;;;;5022806;28;8942;-75
2022/08/30 04:48:09;;;;;;;;;7.50;6.25;;;;;;;;5021441;28;8880;-75
2022/08/30 04:50:36;;;;;;;;;4.00;4.00;;;;;;;;5023475;28;8884;-75
2022/08/30 04:53:04;;;;;;;;;5.25;5.00;;;;;;;;5022172;28;8872;-75
2022/08/30 04:55:31;;;;;;;;;5.00;5.00;;;;;;;;5010743;28;8873;-75
2022/08/30 04:57:59;;;;;;;;;2.00;2.00;;;;;;;;5006225;28;8881;-75
2022/08/30 05:00:27;;;;;;;;;5.00;5.00;;;;;;;;5021802;28;8847;-75
2022/08/30 05:02:54;;;;;;;;;5.00;4.75;;;;;;;;5022012;28;8864;-77
2022/08/30 05:05:41;;;;;;;;;3.50;3.50;;;;;;;;5018319;28;8864;-76
2022/08/30 05:08:09;;;;;;;;;5.00;5.00;;;;;;;;5023769;28;8912;-76
2022/08/30 05:10:39;;;;;;;;;5.25;5.00;;;;;;;;5022725;28;8872;-75
2022/08/30 05:13:07;;;;;;;;;4.50;4.50;;;;;;;;5022335;28;8907;-75
2022/08/30 05:15:34;;;;;;;;;5.75;4.75;;;;;;;;5025971;28;8847;-75
2022/08/30 05:18:02;;;;;;;;;5.50;4.25;;;;;;;;5020660;28;8995;-76
2022/08/30 05:20:31;;;;;;;;;5.25;5.25;;;;;;;;5021956;28;8895;-75
2022/08/30 05:22:58;;;;;;;;;5.00;5.00;;;;;;;;5021755;28;8868;-75
2022/08/30 05:25:27;;;;;;;;;4.00;4.00;;;;;;;;5023774;28;8917;-76
2022/08/30 05:27:55;;;;;;;;;6.50;5.00;;;;;;;;5015962;28;8884;-75
2022/08/30 05:30:24;;;;;;;;;4.75;4.75;;;;;;;;5015797;28;8892;-76
2022/08/30 05:32:51;;;;;;;;;6.25;5.00;;;;;;;;5022494;28;8893;-75
2022/08/30 05:35:20;;;;;;;;;4.00;4.00;;;;;;;;5022231;28;9680;-76
2022/08/30 05:37:49;;;;;;;;;4.75;4.75;;;;;;;;5022715;28;9261;-75
2022/08/30 05:40:17;;;;;;;;;6.75;6.75;;;;;;;;5026219;28;8891;-76
2022/08/30 05:42:44;;;;;;;;;5.00;5.00;;;;;;;;5022431;28;8865;-76
2022/08/30 05:45:13;;;;;;;;;5.00;5.00;;;;;;;;5012033;28;8875;-76
2022/08/30 05:47:40;;;;;;;;;5.00;5.00;;;;;;;;5020052;28;8867;-75
2022/08/30 05:50:09;;;;;;;;;9.25;6.50;;;;;;;;5022000;28;8879;-75
2022/08/30 05:52:37;;;;;;;;;6.75;6.00;;;;;;;;5012449;28;8872;-75
2022/08/30 05:55:07;;;;;;;;;8.25;8.00;;;;;;;;5021774;28;8934;-75
2022/08/30 05:57:34;;;;;;;;;12.50;11.00;;;;;;;;5020455;28;8865;-75
2022/08/30 06:00:01;;;;;;;;;7.00;5.50;;;;;;;;5021670;28;8874;-76
2022/08/30 06:02:29;;;;;;;;;7.75;7.75;;;;;;;;5021486;28;8856;-77
2022/08/30 06:04:56;;;;;;;;;6.25;6.25;;;;;;;;5016893;28;8860;-76
2022/08/30 06:07:23;;;;;;;;;6.00;6.00;;;;;;;;5024566;28;8895;-74
2022/08/30 06:09:51;;;;;;;;;12.25;8.25;;;;;;;;5026465;28;8884;-76
2022/08/30 06:12:20;;;;;;;;;5.25;5.25;;;;;;;;5026801;28;8873;-74
2022/08/30 06:14:47;;;;;;;;;9.00;8.50;;;;;;;;5029622;28;8859;-76
2022/08/30 06:17:14;;;;;;;;;9.00;7.00;;;;;;;;5012741;28;9688;-76
2022/08/30 06:19:42;;;;;;;;;8.75;7.00;;;;;;;;5023875;28;8995;-76
2022/08/30 06:22:09;;;;;;;;;9.25;9.25;;;;;;;;5022604;28;8861;-76
2022/08/30 06:24:36;;;;;;;;;7.50;7.50;;;;;;;;5025010;28;8856;-77
2022/08/30 06:27:04;;;;;;;;;8.00;7.75;;;;;;;;5008794;28;8908;-75
2022/08/30 06:29:32;;;;;;;;;7.00;7.00;;;;;;;;5024610;28;8882;-75
2022/08/30 06:31:59;;;;;;;;;9.50;7.25;;;;;;;;5020481;28;8954;-73
2022/08/30 06:34:27;;;;;;;;;12.50;8.25;;;;;;;;5021859;28;8856;-75
2022/08/30 06:36:54;;;;;;;;;9.75;9.75;;;;;;;;5022502;28;8864;-75
2022/08/30 06:39:21;;;;;;;;;8.50;8.50;;;;;;;;5024831;28;8892;-75
2022/08/30 06:41:48;;;;;;;;;8.00;7.50;;;;;;;;5022081;28;8860;-75
2022/08/30 06:44:16;;;;;;;;;10.50;8.25;;;;;;;;5023924;28;8986;-73
2022/08/30 06:46:45;;;;;;;;;9.00;8.00;;;;;;;;5025836;28;8849;-73
2022/08/30 06:49:12;;;;;;;;;8.25;8.25;;;;;;;;5023097;28;9049;-75
2022/08/30 06:51:40;;;;;;;;;11.25;7.75;;;;;;;;5025019;28;8876;-74
2022/08/30 06:54:08;;;;;;;;;15.75;11.50;;;;;;;;5020749;28;8859;-78
2022/08/30 06:56:35;;;;;;;;;12.00;7.50;;;;;;;;5024576;28;8896;-77
2022/08/30 06:59:02;;;;;;;;;12.50;9.25;;;;;;;;5022788;28;8872;-76
2022/08/30 07:01:30;;;;;;;;;10.25;8.75;;;;;;;;5024182;28;8816;-74
2022/08/30 07:03:59;;;;;;;;;8.25;8.25;;;;;;;;5024115;28;8967;-75
2022/08/30 07:06:28;;;;;;;;;10.25;10.25;;;;;;;;5020936;28;8990;-76
2022/08/30 07:08:55;;;;;;;;;10.00;8.75;;;;;;;;5025413;28;8985;-77
2022/08/30 07:11:27;;;;;;;;;10.25;10.25;;;;;;;;5022619;28;8906;-74
2022/08/30 07:13:55;;;;;;;;;12.25;11.25;;;;;;;;5022856;28;8868;-75
2022/08/30 07:16:23;;;;;;;;;9.00;7.75;;;;;;;;5016995;28;8941;-75
2022/08/30 07:18:50;;;;;;;;;10.75;8.25;;;;;;;;5023857;28;8856;-74
2022/08/30 07:21:20;;;;;;;;;9.25;9.25;;;;;;;;5021546;28;8863;-74
2022/08/30 07:23:49;;;;;;;;;11.25;10.25;;;;;;;;5021831;28;8876;-73
2022/08/30 07:26:18;;;;;;;;;10.25;10.25;;;;;;;;5009596;28;9786;-75
2022/08/30 07:28:46;;;;;;;;;10.00;10.00;;;;;;;;5018345;28;8879;-74
2022/08/30 07:31:15;;;;;;;;;12.25;10.25;;;;;;;;5020189;28;8813;-72
2022/08/30 07:33:43;;;;;;;;;10.75;7.75;;;;;;;;5010311;28;8919;-74
2022/08/30 07:36:10;;;;;;;;;14.25;12.75;;;;;;;;5008444;28;8884;-74
2022/08/30 07:38:40;;;;;;;;;8.50;8.50;;;;;;;;4998753;28;8986;-73
2022/08/30 07:41:07;;;;;;;;;11.75;10.50;;;;;;;;5018481;28;8919;-72
2022/08/30 07:43:36;;;;;;;;;8.25;8.00;;;;;;;;5022921;28;8841;-73
2022/08/30 07:46:05;;;;;;;;;9.50;9.25;;;;;;;;5009907;28;8853;-73
2022/08/30 07:48:33;;;;;;;;;11.00;8.00;;;;;;;;5023355;28;8863;-73
2022/08/30 07:51:00;;;;;;;;;10.00;10.00;;;;;;;;5022106;28;8872;-73
2022/08/30 07:53:28;;;;;;;;;10.75;9.25;;;;;;;;5023040;28;8864;-73
2022/08/30 07:55:57;;;;;;;;;9.25;9.25;;;;;;;;5022120;28;8868;-73
2022/08/30 07:58:24;;;;;;;;;8.75;8.75;;;;;;;;5022613;28;8864;-73
2022/08/30 08:00:51;;;;;;;;;9.00;9.00;;;;;;;;5010919;28;8793;-73
2022/08/30 08:03:19;;;;;;;;;6.50;6.25;;;;;;;;5020951;28;9002;-73
2022/08/30 08:05:47;;;;;;;;;10.25;9.00;;;;;;;;5023227;28;8877;-73
2022/08/30 08:08:14;;;;;;;;;10.75;9.25;;;;;;;;5008358;28;8872;-73
2022/08/30 08:10:42;;;;;;;;;9.80;9.80;;;;;;;;5023032;28;9030;-73
2022/08/30 08:13:11;;;;;;;;;4.60;4.60;;;;;;;;5021419;28;8912;-73
2022/08/30 08:15:39;;;;;;;;;7.80;7.80;;;;;;;;5021241;28;8910;-73
2022/08/30 08:18:07;;;;;;;;;8.60;8.40;;;;;;;;5022100;28;8867;-74
2022/08/30 08:20:35;;;;;;;;;10.00;7.00;;;;;;;;5017432;28;8950;-74
2022/08/30 08:23:03;;;;;;;;;9.00;8.60;;;;;;;;5022369;28;8884;-74
2022/08/30 08:25:30;;;;;;;;;8.00;8.00;;;;;;;;5021538;28;8994;-74
2022/08/30 08:27:58;;;;;;;;;10.60;8.60;;;;;;;;5022182;28;9044;-73
2022/08/30 08:30:26;;;;;;;;;8.60;7.40;;;;;;;;5020777;28;8792;-73
2022/08/30 08:32:54;;;;;;;;;8.00;8.00;;;;;;;;5007720;28;8888;-73
2022/08/30 08:35:21;;;;;;;;;7.00;7.00;;;;;;;;5019439;28;8907;-74
2022/08/30 08:37:49;;;;;;;;;9.00;9.00;;;;;;;;5015959;28;9687;-74
2022/08/30 08:40:19;;;;;;;;;10.80;10.80;;;;;;;;5023103;28;8875;-72
2022/08/30 08:42:56;;;;;;;;;8.40;8.40;;;;;;;;5015856;28;8880;-73
2022/08/30 08:45:33;;;;;;;;;8.80;8.80;;;;;;;;5022100;28;8888;-74
2022/08/30 08:48:05;;;;;;;;;6.20;6.20;;;;;;;;5021106;28;8886;-74
2022/08/30 08:50:33;;;;;;;;;9.60;9.60;;;;;;;;5020346;28;8910;-73
2022/08/30 08:55:51;;;;;;;;;10.00;10.00;;;;;;;;5005477;28;8844;-73
2022/08/30 08:58:23;;;;;;;;;8.60;8.20;;;;;;;;5021796;28;8904;-73
2022/08/30 09:00:53;;;;;;;;;7.00;6.60;;;;;;;;5018791;28;8847;-73
2022/08/30 09:03:22;;;;;;;;;8.60;8.00;;;;;;;;5021079;28;8895;-73
2022/08/30 09:05:50;;;;;;;;;9.00;9.00;;;;;;;;5021864;28;8852;-73
2022/08/30 09:08:19;;;;;;;;;9.20;8.60;;;;;;;;5020834;28;9853;-73
2022/08/30 09:10:51;;;;;;;;;9.00;9.00;;;;;;;;5021895;28;8969;-73
2022/08/30 09:13:18;;;;;;;;;7.80;7.60;;;;;;;;5020532;28;8884;-72
2022/08/30 09:15:45;;;;;;;;;10.20;10.20;;;;;;;;5021952;28;8878;-71
2022/08/30 09:18:15;;;;;;;;;10.00;9.80;;;;;;;;5020736;28;8881;-71
2022/08/30 09:20:47;;;;;;;;;8.00;8.00;;;;;;;;5021088;28;8892;-72
2022/08/30 09:23:26;;;;;;;;;7.00;6.80;;;;;;;;5021613;28;9637;-71
2022/08/30 09:25:55;;;;;;;;;8.20;8.20;;;;;;;;5021003;28;9008;-71
2022/08/30 09:28:25;;;;;;;;;8.80;6.40;;;;;;;;5017565;28;8871;-71
2022/08/30 09:31:01;;;;;;;;;10.60;9.00;;;;;;;;5020266;28;8821;-73
2022/08/30 09:33:43;;;;;;;;;9.60;9.60;;;;;;;;5022817;28;8914;-74
2022/08/30 09:36:32;;;;;;;;;;;;;;;;;;;;;
2022/08/30 09:39:33;;;;;;;;;10.00;8.00;;;;;;;;5022218;28;8924;-73
2022/08/30 09:42:15;;;;;;;;;12.20;9.00;;;;;;;;5021974;28;8853;-72
2022/08/30 09:44:42;;;;;;;;;7.60;7.60;;;;;;;;5023746;28;8962;-73
2022/08/30 09:47:20;;;;;;;;;13.20;10.20;;;;;;;;5025300;28;9016;-72
2022/08/30 09:49:49;;;;;;;;;8.20;6.40;;;;;;;;5021523;28;8964;-72
2022/08/30 09:52:24;;;;;;;;;8.20;8.00;;;;;;;;5022148;28;9597;-73
2022/08/30 09:55:06;;;;;;;;;7.00;7.00;;;;;;;;5025067;28;8832;-73
2022/08/30 09:57:40;;;;;;;;;12.60;11.20;;;;;;;;5024451;28;8896;-73
2022/08/30 10:00:12;;;;;;;;;9.40;7.80;;;;;;;;5011452;28;8871;-71
2022/08/30 10:02:57;;;;;;;;;9.40;9.40;;;;;;;;5022174;28;8880;-72
2022/08/30 10:05:34;;;;;;;;;6.80;5.00;;;;;;;;5025499;28;8848;-72
2022/08/30 10:08:09;;;;;;;;;8.60;8.60;;;;;;;;5025229;28;8933;-72
2022/08/30 10:10:42;;;;;;;;;8.20;8.20;;;;;;;;5023860;28;8878;-71
2022/08/30 10:13:28;;;;;;;;;7.20;7.20;;;;;;;;5025342;28;8990;-72
2022/08/30 10:16:00;;;;;;;;;10.00;10.00;;;;;;;;5024706;28;8905;-72
2022/08/30 10:18:32;;;;;;;;;10.80;8.00;;;;;;;;5023515;28;8996;-72
2022/08/30 10:21:05;;;;;;;;;7.00;7.00;;;;;;;;5025464;28;8856;-72
2022/08/30 10:23:35;;;;;;;;;11.40;8.40;;;;;;;;5024193;28;9003;-72
2022/08/30 10:26:10;;;;;;;;;8.40;8.40;;;;;;;;5024750;28;8867;-72
2022/08/30 10:28:42;;;;;;;;;11.00;9.20;;;;;;;;5023119;28;9692;-70
2022/08/30 10:31:16;;;;;;;;;12.60;10.60;;;;;;;;5024584;28;8804;-72
2022/08/30 10:33:47;;;;;;;;;9.00;9.00;;;;;;;;5024262;28;8861;-72
2022/08/30 10:36:16;;;;;;;;;6.80;6.80;;;;;;;;5022926;28;8864;-72
2022/08/30 10:38:49;;;;;;;;;7.80;7.80;;;;;;;;5024111;28;8872;-72
2022/08/30 10:41:24;;;;;;;;;7.40;7.40;;;;;;;;5024083;28;8864;-73
2022/08/30 10:43:57;;;;;;;;;6.40;6.40;;;;;;;;5024277;28;9648;-72
2022/08/30 10:46:29;;;;;;;;;8.20;8.20;;;;;;;;5023822;28;8864;-72
2022/08/30 10:48:59;;;;;;;;;7.80;7.80;;;;;;;;5022301;28;9043;-72
2022/08/30 10:51:34;;;;;;;;;6.60;6.60;;;;;;;;5016253;28;8870;-73
2022/08/30 10:54:08;;;;;;;;;6.80;6.80;;;;;;;;5021934;28;8888;-73
2022/08/30 10:56:39;;;;;;;;;9.80;7.40;;;;;;;;5021908;28;8892;-74
2022/08/30 10:59:06;;;;;;;;;6.60;6.60;;;;;;;;5027193;28;8864;-74
2022/08/30 11:01:51;;;;;;;;;7.00;7.00;;;;;;;;5023118;28;8833;-74
2022/08/30 11:04:33;;;;;;;;;8.60;8.00;;;;;;;;5024464;28;8880;-73
2022/08/30 11:07:11;;;;;;;;;7.40;7.40;;;;;;;;5018752;28;8890;-73
2022/08/30 11:09:50;;;;;;;;;6.40;6.40;;;;;;;;5022928;28;8897;-74
2022/08/30 11:12:29;;;;;;;;;10.20;8.40;;;;;;;;5016401;28;8864;-73
2022/08/30 11:14:56;;;;;;;;;8.20;7.00;;;;;;;;5022536;28;8863;-74
2022/08/30 11:17:28;;;;;;;;;6.20;5.80;;;;;;;;5023806;28;8845;-73
2022/08/30 11:19:58;;;;;;;;;11.80;10.00;;;;;;;;5022543;28;8966;-73
2022/08/30 11:22:29;;;;;;;;;11.20;8.00;;;;;;;;5024119;28;8863;-74
2022/08/30 11:25:03;;;;;;;;;7.80;7.80;;;;;;;;5011922;28;9632;-74
2022/08/30 11:27:42;;;;;;;;;9.20;7.60;;;;;;;;5020747;28;8876;-74
2022/08/30 11:30:43;;;;;;;;;7.40;7.40;;;;;;;;5019395;28;8879;-75
2022/08/30 11:33:31;;;;;;;;;7.20;6.80;;;;;;;;5015609;28;8903;-74
2022/08/30 11:35:58;;;;;;;;;7.00;7.00;;;;;;;;5022357;28;8939;-74
2022/08/30 11:39:02;;;;;;;;;7.00;7.00;;;;;;;;5009098;28;8880;-75
2022/08/30 11:41:33;;;;;;;;;6.40;6.40;;;;;;;;5017503;28;8887;-73
2022/08/30 11:44:30;;;;;;;;;6.00;6.00;;;;;;;;5022023;28;8888;-72
2022/08/30 11:46:58;;;;;;;;;8.60;6.20;;;;;;;;5013434;28;9618;-73
2022/08/30 11:49:45;;;;;;;;;9.80;9.80;;;;;;;;5022181;28;8864;-72
2022/08/30 11:52:32;;;;;;;;;6.00;6.00;;;;;;;;5020540;28;8872;-76
2022/08/30 11:55:22;;;;;;;;;8.80;6.60;;;;;;;;5021002;28;8869;-76
2022/08/30 11:57:55;;;;;;;;;6.60;6.60;;;;;;;;5024596;28;8899;-74
2022/08/30 12:00:32;;;;;;;;;5.20;4.80;;;;;;;;5019908;28;8867;-75
2022/08/30 12:03:02;;;;;;;;;6.60;6.60;;;;;;;;5021861;28;9733;-74
2022/08/30 12:05:53;;;;;;;;;6.40;5.00;;;;;;;;5024138;28;8876;-74
2022/08/30 12:08:40;;;;;;;;;5.00;5.00;;;;;;;;5022524;28;8876;-75
2022/08/30 12:11:59;;;;;;;;;8.00;8.00;;;;;;;;5023572;28;9665;-74
2022/08/30 12:14:47;;;;;;;;;7.20;6.00;;;;;;;;5023746;28;8884;-74
2022/08/30 12:20:26;;;;;;;;;5.20;5.20;;;;;;;;5021009;28;8864;-74
2022/08/30 12:22:54;;;;;;;;;4.20;4.20;;;;;;;;5023455;28;8879;-74
2022/08/30 12:25:29;;;;;;;;;5.80;5.80;;;;;;;;5022061;28;9672;-74
2022/08/30 12:28:14;;;;;;;;;10.00;6.80;;;;;;;;5023458;28;9033;-74
2022/08/30 12:30:42;;;;;;;;;6.80;5.20;;;;;;;;5019613;28;8820;-74
2022/08/30 12:33:12;;;;;;;;;4.80;4.80;;;;;;;;5021803;28;8904;-74
2022/08/30 12:35:41;;;;;;;;;7.20;6.60;;;;;;;;5008644;28;9662;-74
2022/08/30 12:38:16;;;;;;;;;7.20;6.40;;;;;;;;5021139;28;8949;-74
2022/08/30 12:40:50;;;;;;;;;9.20;6.60;;;;;;;;5025266;28;8859;-75
2022/08/30 12:43:27;;;;;;;;;7.20;5.60;;;;;;;;5021789;28;8871;-75
2022/08/30 12:45:56;;;;;;;;;7.60;7.00;;;;;;;;5020644;28;8903;-75
2022/08/30 12:48:24;;;;;;;;;7.40;6.80;;;;;;;;5021776;28;9881;-75
2022/08/30 12:50:53;;;;;;;;;5.60;5.60;;;;;;;;5023716;28;8887;-75
2022/08/30 12:53:27;;;;;;;;;8.00;6.80;;;;;;;;5021712;28;8868;-75
2022/08/30 12:55:58;;;;;;;;;6.80;6.80;;;;;;;;5021143;28;8880;-75
2022/08/30 12:58:46;;;;;;;;;6.00;4.60;;;;;;;;5021422;28;8853;-75
2022/08/30 13:01:19;;;;;;;;;4.60;4.60;;;;;;;;5021157;28;8843;-75
2022/08/30 13:03:59;;;;;;;;;4.80;4.80;;;;;;;;5019781;28;8888;-76
2022/08/30 13:06:43;;;;;;;;;7.60;7.60;;;;;;;;5021534;28;10070;-75
2022/08/30 13:09:14;;;;;;;;;4.00;4.00;;;;;;;;5020181;28;8886;-75
2022/08/30 13:11:41;;;;;;;;;5.40;5.40;;;;;;;;5019461;28;8903;-76
2022/08/30 13:14:33;;;;;;;;;4.80;4.80;;;;;;;;5021626;28;8876;-75
2022/08/30 13:17:08;;;;;;;;;7.00;6.00;;;;;;;;5020064;28;8885;-75
2022/08/30 13:19:37;;;;;;;;;6.60;5.00;;;;;;;;5022202;28;8876;-76
2022/08/30 13:22:06;;;;;;;;;7.80;6.00;;;;;;;;5020108;28;8888;-76
2022/08/30 13:24:33;;;;;;;;;7.00;6.20;;;;;;;;5019226;28;8896;-76
2022/08/30 13:27:05;;;;;;;;;6.60;6.60;;;;;;;;5019863;28;8849;-75
2022/08/30 13:29:34;;;;;;;;;4.40;4.40;;;;;;;;5018122;28;8861;-77
2022/08/30 13:32:01;;;;;;;;;8.80;8.00;;;;;;;;5017377;28;8821;-78
2022/08/30 13:34:31;;;;;;;;;3.00;3.00;;;;;;;;5018432;28;8876;-76
2022/08/30 13:37:00;;;;;;;;;5.00;5.00;;;;;;;;5021859;28;9005;-78
2022/08/30 13:39:28;;;;;;;;;5.00;5.00;;;;;;;;5010391;28;8863;-78
2022/08/30 13:41:55;;;;;;;;;5.60;5.60;;;;;;;;5021934;28;8861;-78
2022/08/30 13:44:23;;;;;;;;;6.00;6.00;;;;;;;;5020349;28;8867;-76
2022/08/30 13:46:55;;;;;;;;;6.40;6.40;;;;;;;;5022660;28;8849;-73
2022/08/30 13:49:24;;;;;;;;;8.00;6.20;;;;;;;;5023621;28;8902;-75
2022/08/30 13:51:52;;;;;;;;;9.20;7.00;;;;;;;;5019686;28;8844;-76
2022/08/30 13:54:21;;;;;;;;;6.40;6.40;;;;;;;;5022595;28;8883;-75
2022/08/30 13:56:49;;;;;;;;;8.40;7.20;;;;;;;;5020166;28;8873;-74
2022/08/30 13:59:16;;;;;;;;;4.40;4.40;;;;;;;;5020227;28;8985;-73
2022/08/30 14:01:44;;;;;;;;;6.60;6.60;;;;;;;;5019689;28;8821;-76
2022/08/30 14:04:13;;;;;;;;;6.80;5.20;;;;;;;;5020166;28;8884;-74
2022/08/30 14:06:40;;;;;;;;;6.00;6.00;;;;;;;;5018575;28;8845;-78
2022/08/30 14:09:09;;;;;;;;;5.00;5.00;;;;;;;;5020219;28;9645;-76
2022/08/30 14:11:36;;;;;;;;;7.60;6.00;;;;;;;;5022920;28;8876;-77
2022/08/30 14:14:04;;;;;;;;;5.60;5.60;;;;;;;;5020469;28;8911;-78
2022/08/30 14:16:31;;;;;;;;;6.60;6.60;;;;;;;;5020773;28;8891;-73
2022/08/30 14:18:59;;;;;;;;;6.60;5.40;;;;;;;;5020584;28;8979;-77
2022/08/30 14:21:28;;;;;;;;;3.40;3.40;;;;;;;;5018455;28;8932;-75
2022/08/30 14:23:57;;;;;;;;;8.00;7.00;;;;;;;;5019110;28;8856;-75
2022/08/30 14:26:28;;;;;;;;;5.00;5.00;;;;;;;;5020583;28;8871;-78
2022/08/30 14:28:55;;;;;;;;;4.80;4.80;;;;;;;;5025245;28;8876;-76
2022/08/30 14:31:23;;;;;;;;;5.00;5.00;;;;;;;;5023008;28;8852;-74
2022/08/30 14:33:51;;;;;;;;;6.80;5.00;;;;;;;;5025277;28;8876;-79
2022/08/30 14:36:18;;;;;;;;;4.60;4.40;;;;;;;;5022946;28;9677;-76
2022/08/30 14:38:47;;;;;;;;;4.40;3.60;;;;;;;;5014466;28;9650;-76
2022/08/30 14:41:14;;;;;;;;;6.00;6.00;;;;;;;;5024119;28;8895;-77
2022/08/30 14:43:42;;;;;;;;;4.00;4.00;;;;;;;;5025572;28;8870;-77
2022/08/30 14:46:10;;;;;;;;;5.00;5.00;;;;;;;;5024438;28;8999;-78
2022/08/30 14:48:38;;;;;;;;;5.20;5.20;;;;;;;;5023834;28;8880;-77
2022/08/30 14:51:12;;;;;;;;;2.00;2.00;;;;;;;;5024668;28;9700;-76
2022/08/30 14:53:40;;;;;;;;;5.60;5.60;;;;;;;;5026730;28;8910;-76
2022/08/30 14:56:10;;;;;;;;;4.80;4.80;;;;;;;;5024815;28;8994;-77
2022/08/30 14:58:38;;;;;;;;;4.60;4.60;;;;;;;;5024432;28;8860;-75
2022/08/30 15:01:08;;;;;;;;;3.20;3.20;;;;;;;;5022379;28;8928;-75
2022/08/30 15:03:35;;;;;;;;;5.40;5.40;;;;;;;;5025415;28;9667;-73
2022/08/30 15:06:02;;;;;;;;;5.20;5.20;;;;;;;;5023680;28;8880;-74
2022/08/30 15:08:29;;;;;;;;;5.60;5.60;;;;;;;;5024470;28;8896;-74
2022/08/30 15:10:57;;;;;;;;;1.00;1.00;;;;;;;;5023861;28;8889;-75
2022/08/30 15:13:26;;;;;;;;;5.00;4.60;;;;;;;;5023371;28;9739;-75
2022/08/30 15:15:53;;;;;;;;;5.00;5.00;;;;;;;;5023568;28;8868;-75
2022/08/30 15:18:23;;;;;;;;;5.40;3.00;;;;;;;;5023930;28;8898;-74
2022/08/30 15:20:52;;;;;;;;;5.00;5.00;;;;;;;;5024460;28;8937;-73